Time;durP1;ratioP1;P1;durP2;ratioP2;P2;SDS_P1;SDS_P2;PMS_P1;PMS_P2;Temp;Humidity;BMP_temperature;BMP_pressure;BME280_temperature;BME280_humidity;BME280_pressure;Samples;Min_cycle;Max_cycle;Signal;HPM_P1;HPM_P2
2022/10/03 00:01:24;;;;;;;3.80;0.68;;;20.80;68.30;;;;;;10350201;28;20058;-39
2022/10/03 00:06:37;;;;;;;4.93;0.82;;;20.80;68.10;;;;;;10340165;28;20129;-40
2022/10/03 00:11:48;;;;;;;3.33;0.55;;;20.80;68.00;;;;;;10344917;28;20046;-40
2022/10/03 00:16:59;;;;;;;9.33;1.17;;;20.80;68.00;;;;;;10357083;28;20064;-40
2022/10/03 00:22:17;;;;;;;6.97;0.52;;;20.80;68.00;;;;;;10345336;28;20070;-41
2022/10/03 00:27:30;;;;;;;5.85;0.73;;;20.80;67.90;;;;;;10350401;28;20050;-39
2022/10/03 00:33:03;;;;;;;3.47;0.60;;;20.70;68.20;;;;;;10357056;28;20062;-38
2022/10/03 00:38:21;;;;;;;5.57;0.88;;;20.70;68.20;;;;;;10351406;28;20519;-40
2022/10/03 00:43:50;;;;;;;5.60;1.15;;;20.70;68.00;;;;;;10350056;28;20137;-44
2022/10/03 00:49:20;;;;;;;10.13;0.88;;;20.70;68.20;;;;;;10367298;28;20084;-42
2022/10/03 00:54:37;;;;;;;6.68;0.60;;;20.40;67.80;;;;;;10366854;28;20449;-42
2022/10/03 01:00:03;;;;;;;1.80;0.63;;;20.70;68.10;;;;;;10349902;28;20659;-40
2022/10/03 01:05:15;;;;;;;2.65;0.50;;;20.70;68.20;;;;;;10335785;28;20041;-38
2022/10/03 01:10:22;;;;;;;5.75;0.73;;;20.70;68.30;;;;;;10373149;28;20054;-39
2022/10/03 01:15:33;;;;;;;5.28;0.77;;;20.60;68.30;;;;;;10368782;28;20069;-38
2022/10/03 01:20:45;;;;;;;5.50;0.73;;;20.70;68.10;;;;;;10360996;28;20062;-40
2022/10/03 01:25:52;;;;;;;6.88;0.80;;;20.70;68.20;;;;;;10364277;28;20061;-38
2022/10/03 01:30:59;;;;;;;4.30;0.80;;;20.80;68.20;;;;;;10381210;28;20499;-40
2022/10/03 01:36:10;;;;;;;3.40;0.73;;;20.60;68.30;;;;;;10371096;28;20158;-40
2022/10/03 01:41:22;;;;;;;3.97;0.68;;;20.60;68.20;;;;;;10365733;28;20078;-40
2022/10/03 01:46:37;;;;;;;5.43;0.90;;;20.60;68.20;;;;;;10359202;28;20074;-40
2022/10/03 01:51:47;;;;;;;7.63;0.98;;;20.50;68.10;;;;;;10364606;28;20522;-45
2022/10/03 01:56:56;;;;;;;5.07;1.20;;;20.50;68.20;;;;;;10356099;28;20069;-41
2022/10/03 02:02:06;;;;;;;6.13;0.98;;;20.50;68.40;;;;;;10362457;28;20046;-41
2022/10/03 02:07:16;;;;;;;5.78;0.80;;;20.50;68.20;;;;;;10352840;28;20046;-44
2022/10/03 02:12:27;;;;;;;6.55;0.73;;;20.50;68.10;;;;;;10354286;28;20038;-40
2022/10/03 02:17:45;;;;;;;5.07;0.90;;;20.50;68.30;;;;;;10368037;28;20090;-39
2022/10/03 02:22:52;;;;;;;4.13;0.50;;;20.50;68.20;;;;;;10364122;28;20039;-45
2022/10/03 02:28:29;;;;;;;4.13;0.52;;;20.50;68.00;;;;;;10363859;28;20077;-40
2022/10/03 02:34:06;;;;;;;6.28;0.77;;;20.40;68.30;;;;;;10362258;28;20140;-37
2022/10/03 02:39:38;;;;;;;3.30;0.70;;;20.40;68.40;;;;;;10369545;28;20698;-40
2022/10/03 02:45:09;;;;;;;3.10;0.50;;;20.40;68.30;;;;;;10355391;28;20053;-39
2022/10/03 02:50:35;;;;;;;3.10;0.60;;;20.30;67.90;;;;;;10353747;28;20069;-39
2022/10/03 02:56:07;;;;;;;1.95;0.80;;;20.40;67.60;;;;;;10371618;28;20125;-35
2022/10/03 03:01:45;;;;;;;1.80;0.60;;;20.30;68.50;;;;;;10360827;28;20081;-43
2022/10/03 03:07:07;;;;;;;5.88;0.80;;;20.30;68.40;;;;;;10357773;28;20038;-40
2022/10/03 03:12:53;;;;;;;7.60;1.30;;;20.20;68.40;;;;;;10373723;28;20467;-47
2022/10/03 03:18:03;;;;;;;5.35;1.20;;;20.20;68.60;;;;;;10339480;28;20598;-39
2022/10/03 03:23:39;;;;;;;4.20;0.75;;;20.20;68.50;;;;;;10352341;28;20074;-39
2022/10/03 03:28:52;;;;;;;7.72;0.70;;;20.20;68.60;;;;;;10336336;28;20056;-40
2022/10/03 03:34:03;;;;;;;2.20;0.60;;;20.30;68.60;;;;;;10348961;28;20112;-40
2022/10/03 03:39:34;;;;;;;1.33;0.47;;;20.20;68.40;;;;;;10348236;28;20053;-38
2022/10/03 03:45:18;;;;;;;3.72;0.43;;;20.10;68.10;;;;;;10344869;28;20148;-39
2022/10/03 03:50:46;;;;;;;4.03;0.70;;;20.10;68.50;;;;;;10342856;28;20042;-43
2022/10/03 03:56:16;;;;;;;5.45;1.35;;;20.10;68.30;;;;;;10356868;28;20156;-41
2022/10/03 04:01:36;;;;;;;1.40;0.43;;;20.10;68.50;;;;;;10363042;28;20148;-46
2022/10/03 04:06:48;;;;;;;3.72;0.88;;;20.10;68.30;;;;;;10350593;28;20061;-41
2022/10/03 04:12:08;;;;;;;4.05;0.70;;;20.00;68.50;;;;;;10358392;28;20085;-40
2022/10/03 04:23:05;;;;;;;2.55;0.77;;;20.00;69.10;;;;;;10360739;28;20045;-41
2022/10/03 04:28:33;;;;;;;3.55;0.80;;;20.00;68.50;;;;;;10355728;28;20122;-39
2022/10/03 04:33:53;;;;;;;1.17;0.65;;;19.90;68.00;;;;;;10349563;28;21007;-40
2022/10/03 04:39:05;;;;;;;4.65;0.90;;;20.00;69.00;;;;;;10349627;28;20085;-39
2022/10/03 04:44:17;;;;;;;10.77;1.33;;;20.00;69.00;;;;;;10352574;28;20050;-41
2022/10/03 04:49:29;;;;;;;1.93;0.90;;;19.90;67.90;;;;;;10351070;28;20073;-40
2022/10/03 04:54:46;;;;;;;2.55;0.52;;;19.90;69.00;;;;;;10359180;28;20894;-41
2022/10/03 04:59:56;;;;;;;3.53;1.00;;;19.80;69.20;;;;;;10363723;28;20054;-40
2022/10/03 05:05:16;;;;;;;3.97;0.88;;;19.80;69.30;;;;;;10361696;28;20046;-44
2022/10/03 05:10:29;;;;;;;3.00;1.00;;;19.80;69.40;;;;;;10357871;28;20100;-39
2022/10/03 05:15:34;;;;;;;;;;;19.80;68.60;;;;;;10366791;28;20136;-40
2022/10/03 05:20:47;;;;;;;4.63;1.17;;;19.50;67.40;;;;;;10354094;28;20358;-40
2022/10/03 05:25:53;;;;;;;;;;;19.50;68.30;;;;;;10364229;28;20079;-43
2022/10/03 05:31:03;;;;;;;3.00;0.95;;;19.30;68.30;;;;;;10354446;28;19961;-38
2022/10/03 05:36:14;;;;;;;3.13;0.90;;;19.30;67.90;;;;;;10362390;28;20048;-41
2022/10/03 05:41:25;;;;;;;3.30;1.20;;;19.30;67.60;;;;;;10350629;28;20043;-39
2022/10/03 05:46:41;;;;;;;6.15;1.10;;;19.50;69.10;;;;;;10355472;28;20070;-42
2022/10/03 05:52:12;;;;;;;2.67;0.95;;;19.60;69.30;;;;;;10349545;28;20053;-40
2022/10/03 05:57:38;;;;;;;5.25;1.30;;;19.60;69.30;;;;;;10344737;28;20077;-39
2022/10/03 06:03:11;;;;;;;5.95;1.42;;;19.60;70.30;;;;;;10354698;28;20064;-39
2022/10/03 06:08:44;;;;;;;2.22;0.88;;;19.60;69.80;;;;;;10366134;28;20038;-42
2022/10/03 06:14:06;;;;;;;4.00;0.93;;;19.60;70.30;;;;;;10362328;28;20515;-39
2022/10/03 06:19:20;;;;;;;2.87;0.90;;;19.60;69.00;;;;;;10370256;28;20053;-40
2022/10/03 06:25:06;;;;;;;5.22;1.15;;;19.50;70.50;;;;;;10347164;28;20487;-46
2022/10/03 06:30:30;;;;;;;5.35;1.00;;;19.70;70.80;;;;;;10327270;28;20082;-40
2022/10/03 06:36:23;;;;;;;6.95;1.50;;;19.70;70.30;;;;;;10359648;28;20050;-43
2022/10/03 06:42:06;;;;;;;4.53;1.10;;;19.70;70.40;;;;;;10286813;28;20085;-39
2022/10/03 06:47:35;;;;;;;4.05;0.70;;;19.70;70.60;;;;;;10342386;28;20056;-40
2022/10/03 06:52:55;;;;;;;3.60;1.15;;;19.70;70.70;;;;;;10348634;28;20112;-40
2022/10/03 06:58:31;;;;;;;3.13;1.10;;;19.70;70.90;;;;;;10355777;28;20056;-39
2022/10/03 07:04:10;;;;;;;3.95;1.00;;;19.80;70.80;;;;;;10351822;28;20208;-46
2022/10/03 07:09:45;;;;;;;3.10;1.02;;;19.70;70.90;;;;;;10356598;28;20163;-41
2022/10/03 07:15:08;;;;;;;3.10;1.02;;;19.70;70.70;;;;;;10335197;28;20144;-41
2022/10/03 07:20:55;;;;;;;2.90;0.90;;;19.70;70.70;;;;;;10360577;28;20427;-37
2022/10/03 07:26:38;;;;;;;4.80;1.08;;;19.70;70.60;;;;;;10319638;28;20477;-40
2022/10/03 07:31:49;;;;;;;;;;;19.70;70.60;;;;;;10351412;28;20136;-43
2022/10/03 07:43:02;;;;;;;6.05;1.05;;;19.90;69.60;;;;;;10359696;28;20046;-39
2022/10/03 07:48:53;;;;;;;1.92;0.90;;;20.00;69.70;;;;;;10342594;28;20069;-39
2022/10/03 07:54:26;;;;;;;5.13;1.02;;;20.00;70.10;;;;;;10347437;28;20148;-38
2022/10/03 07:59:55;;;;;;;2.72;0.95;;;20.00;69.90;;;;;;10354039;28;20411;-47
2022/10/03 08:05:19;;;;;;;2.63;0.73;;;20.00;69.40;;;;;;10352417;28;20069;-41
2022/10/03 08:10:48;;;;;;;4.10;1.10;;;20.00;70.10;;;;;;10333538;28;20141;-44
2022/10/03 08:16:05;;;;;;;4.15;0.88;;;20.00;70.10;;;;;;10347132;28;20049;-40
2022/10/03 08:21:21;;;;;;;1.55;0.75;;;20.00;70.20;;;;;;10348537;28;20101;-47
2022/10/03 08:26:38;;;;;;;6.22;0.90;;;20.00;70.30;;;;;;10352759;28;20514;-39
2022/10/03 08:32:11;;;;;;;2.83;0.90;;;20.00;69.90;;;;;;10352238;28;20082;-38
2022/10/03 08:37:39;;;;;;;3.45;0.90;;;20.00;70.30;;;;;;10361879;28;20053;-39
2022/10/03 08:43:06;;;;;;;5.47;1.00;;;20.00;69.90;;;;;;10356178;28;20089;-39
2022/10/03 08:48:48;;;;;;;6.22;0.80;;;20.00;69.90;;;;;;10343193;28;20090;-41
2022/10/03 08:54:14;;;;;;;5.53;0.73;;;20.10;69.80;;;;;;10253831;28;20062;-40
2022/10/03 08:59:49;;;;;;;5.88;0.73;;;20.10;69.60;;;;;;10334632;28;20060;-41
2022/10/03 09:05:22;;;;;;;3.38;0.80;;;20.10;69.80;;;;;;10336427;28;20170;-40
2022/10/03 09:11:05;;;;;;;2.83;0.70;;;20.00;69.40;;;;;;10362254;28;20097;-39
2022/10/03 09:16:44;;;;;;;5.93;1.00;;;19.90;69.50;;;;;;10365204;28;20515;-43
2022/10/03 09:22:15;;;;;;;4.07;0.80;;;20.00;70.00;;;;;;10352397;28;20147;-40
2022/10/03 09:27:36;;;;;;;4.57;0.80;;;19.90;70.80;;;;;;10360406;28;20506;-42
2022/10/03 09:33:17;;;;;;;4.63;1.48;;;19.90;70.60;;;;;;10354036;28;20671;-43
2022/10/03 09:38:49;;;;;;;5.70;1.23;;;19.80;71.00;;;;;;10362486;28;20045;-41
2022/10/03 09:44:21;;;;;;;4.72;1.20;;;19.00;75.50;;;;;;10351805;28;20473;-42
2022/10/03 09:50:00;;;;;;;2.10;0.73;;;18.90;76.00;;;;;;10351729;28;20085;-40
2022/10/03 09:55:22;;;;;;;8.45;1.75;;;19.20;75.10;;;;;;10359990;28;20532;-38
2022/10/03 10:00:31;;;;;;;6.97;1.58;;;18.50;79.20;;;;;;10355491;28;20088;-42
2022/10/03 10:06:11;;;;;;;6.53;1.20;;;18.80;77.50;;;;;;10344805;28;20053;-40
2022/10/03 10:11:21;;;;;;;4.60;1.20;;;19.60;73.70;;;;;;10347856;28;20144;-39
2022/10/03 10:17:10;;;;;;;4.45;1.10;;;19.80;72.30;;;;;;10353834;28;20046;-40
2022/10/03 10:22:39;;;;;;;4.97;0.80;;;19.80;72.40;;;;;;10361265;28;20170;-40
2022/10/03 10:28:11;;;;;;;3.47;1.02;;;20.00;71.50;;;;;;10361583;28;20475;-41
2022/10/03 10:33:31;;;;;;;;;;;20.00;71.20;;;;;;10338202;28;20089;-40
2022/10/03 10:39:26;;;;;;;5.50;0.90;;;19.90;71.40;;;;;;10368262;28;19922;-40
2022/10/03 10:45:13;;;;;;;4.85;1.40;;;19.80;71.90;;;;;;10306097;28;20045;-42
2022/10/03 10:50:44;;;;;;;9.23;1.92;;;19.80;72.10;;;;;;10356704;28;20101;-42
2022/10/03 10:56:28;;;;;;;4.85;1.20;;;19.00;75.70;;;;;;10360728;28;20046;-41
2022/10/03 11:02:07;;;;;;;5.38;1.15;;;19.60;73.20;;;;;;10362025;28;20053;-39
2022/10/03 11:07:51;;;;;;;8.82;2.15;;;19.60;72.70;;;;;;10347995;28;20112;-42
2022/10/03 11:13:29;;;;;;;7.68;2.72;;;19.70;72.30;;;;;;10361288;28;20076;-38
2022/10/03 11:19:10;;;;;;;13.10;3.40;;;19.80;71.90;;;;;;10343418;28;20057;-38
2022/10/03 11:24:50;;;;;;;5.82;1.90;;;19.70;72.50;;;;;;10372603;28;20124;-37
2022/10/03 11:30:22;;;;;;;8.27;1.55;;;19.70;73.00;;;;;;10343999;28;20038;-42
2022/10/03 11:36:10;;;;;;;6.07;2.15;;;19.80;72.80;;;;;;10347189;28;20046;-40
2022/10/03 11:41:21;;;;;;;5.70;1.50;;;19.60;74.10;;;;;;10245519;28;20051;-45
2022/10/03 11:46:36;;;;;;;4.68;1.70;;;19.90;71.90;;;;;;10337650;28;20484;-41
2022/10/03 11:51:45;;;;;;;11.00;1.65;;;19.90;72.40;;;;;;10344842;28;20042;-41
2022/10/03 11:56:50;;;;;;;14.55;2.15;;;19.50;72.80;;;;;;10346002;28;20042;-41
2022/10/03 12:02:06;;;;;;;6.68;1.35;;;19.30;74.40;;;;;;10362514;28;20132;-40
2022/10/03 12:12:44;;;;;;;24.35;2.95;;;18.80;76.50;;;;;;10354495;28;20054;-45
2022/10/03 12:17:55;;;;;;;8.10;1.45;;;18.80;76.30;;;;;;10354905;28;20060;-41
2022/10/03 12:23:07;;;;;;;7.70;1.88;;;19.40;75.10;;;;;;10346334;28;20054;-40
2022/10/03 12:28:16;;;;;;;8.88;2.10;;;19.50;74.10;;;;;;10356405;28;20046;-42
2022/10/03 12:33:29;;;;;;;9.35;2.13;;;19.30;73.50;;;;;;10347648;28;20052;-40
2022/10/03 12:38:45;;;;;;;7.40;1.58;;;19.50;73.00;;;;;;10354254;28;20081;-40
2022/10/03 12:44:04;;;;;;;4.63;1.40;;;19.70;73.60;;;;;;10348233;28;20053;-41
2022/10/03 12:49:15;;;;;;;12.23;2.38;;;19.90;71.20;;;;;;10357292;28;20457;-39
2022/10/03 12:54:36;;;;;;;8.48;1.92;;;19.00;72.30;;;;;;10343557;28;20085;-40
2022/10/03 12:59:41;;;;;;;10.48;2.15;;;19.00;75.90;;;;;;10366338;28;20093;-40
2022/10/03 13:04:53;;;;;;;11.68;2.22;;;19.30;72.80;;;;;;10362630;28;20057;-40
2022/10/03 13:10:17;;;;;;;10.05;1.73;;;18.50;75.90;;;;;;10333181;28;20495;-41
2022/10/03 13:15:46;;;;;;;14.55;2.47;;;18.20;79.80;;;;;;10349149;28;20042;-43
2022/10/03 13:20:59;;;;;;;5.78;1.17;;;18.30;78.80;;;;;;10347969;28;20054;-43
2022/10/03 13:26:11;;;;;;;22.95;2.72;;;18.30;79.40;;;;;;10355362;28;20053;-40
2022/10/03 13:31:21;;;;;;;11.27;2.33;;;18.20;79.80;;;;;;10357478;28;20056;-42
2022/10/03 13:36:26;;;;;;;2.85;1.30;;;18.00;80.20;;;;;;10362065;28;20543;-41
2022/10/03 13:41:45;;;;;;;10.98;2.72;;;18.20;81.20;;;;;;10360056;28;20081;-40
2022/10/03 13:46:53;;;;;;;7.00;1.52;;;18.80;77.10;;;;;;10354450;28;20131;-41
2022/10/03 13:52:01;;;;;;;7.18;1.98;;;18.50;78.20;;;;;;10347025;28;20042;-36
2022/10/03 13:57:15;;;;;;;6.30;1.55;;;18.60;73.40;;;;;;10357776;28;20054;-41
2022/10/03 14:03:05;;;;;;;8.02;2.00;;;18.70;75.50;;;;;;10366941;28;20074;-41
2022/10/03 14:08:13;;;;;;;11.95;1.70;;;18.40;74.70;;;;;;10362202;28;20375;-39
2022/10/03 14:13:24;;;;;;;4.75;1.30;;;18.30;73.40;;;;;;10352223;28;20065;-42
2022/10/03 14:18:38;;;;;;;4.37;1.73;;;18.30;72.90;;;;;;10356523;28;20062;-41
2022/10/03 14:23:44;;;;;;;9.60;1.30;;;18.80;76.50;;;;;;10349502;28;20074;-38
2022/10/03 14:28:54;;;;;;;7.20;1.60;;;18.40;69.90;;;;;;10350872;28;20113;-42
2022/10/03 14:34:01;;;;;;;10.60;1.92;;;18.90;69.40;;;;;;10353074;28;20389;-38
2022/10/03 14:39:24;;;;;;;7.00;1.40;;;18.70;67.60;;;;;;10356587;28;20442;-42
2022/10/03 14:44:36;;;;;;;5.70;1.65;;;19.30;66.30;;;;;;10355101;28;20057;-46
2022/10/03 14:49:46;;;;;;;10.15;1.48;;;19.80;62.70;;;;;;10344173;28;20399;-44
2022/10/03 14:54:51;;;;;;;2.35;1.02;;;20.10;58.60;;;;;;10343200;28;20550;-40
2022/10/03 14:59:57;;;;;;;6.28;1.58;;;20.40;68.20;;;;;;10343748;28;20053;-43
2022/10/03 15:05:07;;;;;;;7.18;1.58;;;20.40;60.40;;;;;;10344449;28;20066;-40
2022/10/03 15:10:13;;;;;;;6.45;1.30;;;20.10;65.70;;;;;;10349533;28;20042;-42
2022/10/03 15:15:23;;;;;;;12.57;1.55;;;19.50;64.60;;;;;;10354612;28;20078;-40
2022/10/03 15:20:29;;;;;;;7.90;1.00;;;20.00;64.90;;;;;;10366498;28;20109;-39
2022/10/03 15:25:36;;;;;;;6.90;1.10;;;19.60;70.90;;;;;;10357730;28;20042;-40
2022/10/03 15:30:41;;;;;;;3.67;0.82;;;20.00;68.50;;;;;;10359137;28;20053;-40
2022/10/03 15:35:48;;;;;;;5.43;1.30;;;20.10;70.10;;;;;;10360718;28;20054;-39
2022/10/03 15:40:54;;;;;;;1.38;0.65;;;20.50;64.80;;;;;;10352444;28;20820;-41
2022/10/03 15:46:00;;;;;;;2.35;0.88;;;20.40;69.50;;;;;;10361281;28;20080;-43
2022/10/03 15:51:03;;;;;;;2.58;0.70;;;20.30;69.80;;;;;;10352259;28;20052;-39
2022/10/03 15:56:14;;;;;;;2.92;1.05;;;20.70;68.10;;;;;;10378255;28;20532;-41
2022/10/03 16:01:22;;;;;;;11.38;2.78;;;20.80;65.90;;;;;;10375286;28;20474;-40
2022/10/03 16:06:32;;;;;;;4.65;1.15;;;20.40;64.10;;;;;;10362594;28;20395;-40
2022/10/03 16:11:44;;;;;;;2.67;0.82;;;20.00;71.00;;;;;;10353292;28;20051;-42
2022/10/03 16:16:52;;;;;;;3.70;1.00;;;21.00;67.90;;;;;;10362126;28;20050;-42
2022/10/03 16:22:03;;;;;;;4.57;0.98;;;21.10;67.70;;;;;;10359763;28;20077;-40
2022/10/03 16:27:15;;;;;;;3.53;0.82;;;21.10;67.60;;;;;;10359831;28;20560;-40
2022/10/03 16:32:22;;;;;;;3.40;1.05;;;21.20;68.30;;;;;;10361422;28;20050;-44
2022/10/03 16:37:26;;;;;;;4.10;1.15;;;21.20;68.40;;;;;;10367059;28;20086;-40
2022/10/03 16:42:39;;;;;;;5.20;1.40;;;21.30;68.60;;;;;;10364239;28;20053;-41
2022/10/03 16:47:42;;;;;;;;;;;21.30;68.80;;;;;;10374386;28;20125;-41
2022/10/03 16:52:47;;;;;;;11.98;2.28;;;21.30;68.90;;;;;;10369799;28;20025;-40
2022/10/03 16:57:52;;;;;;;10.75;2.00;;;21.30;69.00;;;;;;10381852;28;20092;-39
2022/10/03 17:02:56;;;;;;;9.48;2.30;;;21.30;68.90;;;;;;10370002;28;20130;-40
2022/10/03 17:08:01;;;;;;;10.65;2.63;;;21.30;69.00;;;;;;10342731;28;20060;-40
2022/10/03 17:13:10;;;;;;;9.77;4.20;;;21.30;68.90;;;;;;10347845;28;20042;-42
2022/10/03 17:18:21;;;;;;;12.70;2.90;;;21.20;68.90;;;;;;10361974;28;20498;-39
2022/10/03 17:23:34;;;;;;;10.68;3.50;;;21.20;68.90;;;;;;10348149;28;20045;-40
2022/10/03 17:28:41;;;;;;;20.45;5.18;;;21.30;69.30;;;;;;10351062;28;20046;-42
2022/10/03 17:33:49;;;;;;;24.05;5.63;;;21.60;69.20;;;;;;10371879;28;20520;-42
2022/10/03 17:38:58;;;;;;;22.23;6.90;;;21.80;67.70;;;;;;10361252;28;20078;-41
2022/10/03 17:44:06;;;;;;;22.05;7.05;;;22.10;66.90;;;;;;10383342;28;20059;-42
2022/10/03 17:49:20;;;;;;;33.95;18.48;;;22.40;66.20;;;;;;10360300;28;20057;-40
2022/10/03 17:54:28;;;;;;;26.08;10.98;;;20.20;67.90;;;;;;10353880;28;20467;-40
2022/10/03 17:59:34;;;;;;;30.20;14.88;;;20.70;73.50;;;;;;10344838;28;20565;-41
2022/10/03 18:04:41;;;;;;;26.98;12.70;;;21.00;69.30;;;;;;10364602;28;20438;-36
2022/10/03 18:09:47;;;;;;;20.90;9.70;;;20.10;70.80;;;;;;10346957;28;20042;-40
2022/10/03 18:15:19;;;;;;;22.90;8.00;;;21.80;69.70;;;;;;10341318;28;20068;-38
2022/10/03 18:20:31;;;;;;;;;;;22.00;68.80;;;;;;10341722;28;20046;-41
2022/10/03 18:25:57;;;;;;;13.80;5.53;;;21.80;69.10;;;;;;10359736;28;20007;-38
2022/10/03 18:31:02;;;;;;;9.73;5.28;;;21.70;69.70;;;;;;10365421;28;20050;-40
2022/10/03 18:36:14;;;;;;;16.95;4.85;;;21.60;70.10;;;;;;10360161;28;20156;-39
2022/10/03 18:41:18;;;;;;;12.90;5.00;;;21.50;70.40;;;;;;10348977;28;20148;-41
2022/10/03 18:46:24;;;;;;;12.02;4.70;;;21.40;71.00;;;;;;10370654;28;20048;-39
2022/10/03 18:51:32;;;;;;;9.85;4.75;;;21.40;71.20;;;;;;10351029;28;20107;-40
2022/10/03 18:56:36;;;;;;;12.35;4.63;;;21.40;71.60;;;;;;10352642;28;20125;-38
2022/10/03 19:01:50;;;;;;;11.07;4.28;;;21.30;71.50;;;;;;10356122;28;20045;-39
2022/10/03 19:06:54;;;;;;;9.05;4.65;;;21.30;71.70;;;;;;10376473;28;20045;-40
2022/10/03 19:12:08;;;;;;;9.48;3.85;;;21.30;71.80;;;;;;10372613;28;20097;-38
2022/10/03 19:17:24;;;;;;;8.10;3.95;;;21.30;71.90;;;;;;10357416;28;20108;-36
2022/10/03 19:22:30;;;;;;;12.68;4.68;;;21.30;71.70;;;;;;10367282;28;20045;-38
2022/10/03 19:27:48;;;;;;;11.40;4.25;;;21.30;72.00;;;;;;10366394;28;20133;-40
2022/10/03 19:32:55;;;;;;;9.07;3.58;;;21.30;71.70;;;;;;10363233;28;20574;-37
2022/10/03 19:38:03;;;;;;;8.82;3.78;;;21.40;71.50;;;;;;10359524;28;20115;-41
2022/10/03 19:43:34;;;;;;;6.22;3.60;;;21.30;71.60;;;;;;10351175;28;20132;-39
2022/10/03 19:48:42;;;;;;;15.18;4.72;;;21.30;71.20;;;;;;10354276;28;20383;-40
2022/10/03 19:53:46;;;;;;;11.63;3.88;;;21.30;71.10;;;;;;10350763;28;20490;-40
2022/10/03 19:59:01;;;;;;;13.65;4.20;;;21.30;70.90;;;;;;10344724;28;20073;-41
2022/10/03 20:04:03;;;;;;;16.25;4.00;;;21.30;70.70;;;;;;10350655;28;20045;-38
2022/10/03 20:09:18;;;;;;;7.65;4.45;;;21.20;70.80;;;;;;10372755;28;20547;-40
2022/10/03 20:14:25;;;;;;;7.53;4.10;;;21.20;70.70;;;;;;10347684;28;20133;-40
2022/10/03 20:19:33;;;;;;;17.98;4.47;;;21.30;70.70;;;;;;10352791;28;20108;-39
2022/10/03 20:24:39;;;;;;;13.38;3.65;;;21.20;70.60;;;;;;10363247;28;20164;-39
2022/10/03 20:29:50;;;;;;;13.77;3.83;;;21.20;70.50;;;;;;10358153;28;20116;-42
2022/10/03 20:34:57;;;;;;;11.32;4.00;;;21.20;70.50;;;;;;10353846;28;20054;-39
2022/10/03 20:40:11;;;;;;;13.57;3.92;;;21.20;70.30;;;;;;10354989;28;20131;-41
2022/10/03 20:45:17;;;;;;;12.98;3.30;;;21.20;70.50;;;;;;10349462;28;20470;-40
2022/10/03 20:50:24;;;;;;;9.57;3.67;;;21.20;70.40;;;;;;10362678;28;20502;-39
2022/10/03 20:55:32;;;;;;;14.13;3.47;;;21.20;70.30;;;;;;10353583;28;20495;-39
2022/10/03 21:00:43;;;;;;;7.40;3.80;;;21.10;70.30;;;;;;10343004;28;20070;-38
2022/10/03 21:05:50;;;;;;;10.88;2.88;;;21.20;70.90;;;;;;10346344;28;20050;-40
2022/10/03 21:10:56;;;;;;;14.13;3.30;;;21.10;70.20;;;;;;10357215;28;20088;-38
2022/10/03 21:16:01;;;;;;;8.57;3.05;;;21.10;70.30;;;;;;10372415;28;20514;-39
2022/10/03 21:21:07;;;;;;;7.50;2.80;;;21.00;70.30;;;;;;10373502;28;20136;-42
2022/10/03 21:26:11;;;;;;;6.03;2.33;;;21.00;70.30;;;;;;10361001;28;20046;-40
2022/10/03 21:31:35;;;;;;;8.13;2.33;;;21.00;70.30;;;;;;10354063;28;20078;-38
2022/10/03 21:36:48;;;;;;;9.57;2.45;;;21.00;70.30;;;;;;10365758;28;20053;-40
2022/10/03 21:42:05;;;;;;;6.07;2.17;;;21.00;70.40;;;;;;10337719;28;20798;-40
2022/10/03 21:47:21;;;;;;;7.75;2.40;;;21.00;70.30;;;;;;10340617;28;20606;-37
2022/10/03 21:52:34;;;;;;;7.00;2.88;;;20.90;70.30;;;;;;10370793;28;20087;-40
2022/10/03 21:57:48;;;;;;;4.63;2.10;;;20.90;70.80;;;;;;10348015;28;20046;-39
2022/10/03 22:03:03;;;;;;;5.60;2.20;;;20.90;70.20;;;;;;10372430;28;20100;-39
2022/10/03 22:08:21;;;;;;;5.47;1.75;;;20.90;70.30;;;;;;10358645;28;20120;-44
2022/10/03 22:13:27;;;;;;;3.70;1.80;;;20.90;70.30;;;;;;10352429;28;20038;-41
2022/10/03 22:18:34;;;;;;;7.43;1.70;;;20.90;70.40;;;;;;10351917;28;20149;-42
2022/10/03 22:23:43;;;;;;;8.70;1.85;;;20.80;70.30;;;;;;10363719;28;20074;-40
2022/10/03 22:28:55;;;;;;;6.25;1.80;;;20.80;70.30;;;;;;10345166;28;20128;-38
2022/10/03 22:34:15;;;;;;;4.10;1.73;;;20.80;70.30;;;;;;10344343;28;20073;-41
2022/10/03 22:39:19;;;;;;;4.47;1.70;;;20.80;70.30;;;;;;10355058;28;20530;-41
2022/10/03 22:44:27;;;;;;;5.93;1.48;;;20.80;70.30;;;;;;10356380;28;20133;-38
2022/10/03 22:49:34;;;;;;;4.35;1.60;;;20.80;70.30;;;;;;10360969;28;20085;-40
2022/10/03 22:54:39;;;;;;;3.92;1.80;;;20.80;70.40;;;;;;10354114;28;20411;-40
2022/10/03 22:59:47;;;;;;;3.40;1.73;;;20.70;70.30;;;;;;10360766;28;20084;-38
2022/10/03 23:04:52;;;;;;;3.40;1.95;;;20.80;70.40;;;;;;10366248;28;20057;-44
2022/10/03 23:10:13;;;;;;;4.95;1.50;;;20.70;70.40;;;;;;10346306;28;20444;-39
2022/10/03 23:15:19;;;;;;;6.03;1.42;;;20.70;70.70;;;;;;10350216;28;20410;-41
2022/10/03 23:20:49;;;;;;;3.15;1.63;;;20.70;70.50;;;;;;10346497;28;20081;-39
2022/10/03 23:26:02;;;;;;;7.28;1.42;;;20.60;70.70;;;;;;10367918;28;20049;-37
2022/10/03 23:31:06;;;;;;;2.83;1.15;;;20.60;70.80;;;;;;10379719;28;20081;-38
2022/10/03 23:36:15;;;;;;;4.57;1.55;;;20.60;70.80;;;;;;10362319;28;20136;-39
2022/10/03 23:41:57;;;;;;;4.45;1.55;;;20.60;70.60;;;;;;10370060;28;20081;-43
2022/10/03 23:47:01;;;;;;;5.13;1.33;;;20.60;70.30;;;;;;10351837;28;21371;-38
2022/10/03 23:52:06;;;;;;;2.65;1.23;;;20.60;70.70;;;;;;10364307;28;20131;-39
2022/10/03 23:57:08;;;;;;;2.70;1.17;;;20.70;70.60;;;;;;10365578;28;20097;-38
